sensor_id;sensor_type;location;lat;lon;timestamp;P1;durP1;ratioP1;P2;durP2;ratioP2
38053;SDS011;23859;50.672;7.164;2023-08-06T00:01:06;9.57;;;4.90;;
38053;SDS011;23859;50.672;7.164;2023-08-06T00:03:32;8.00;;;4.60;;
38053;SDS011;23859;50.672;7.164;2023-08-06T00:05:58;11.05;;;4.63;;
38053;SDS011;23859;50.672;7.164;2023-08-06T00:08:24;8.90;;;4.80;;
38053;SDS011;23859;50.672;7.164;2023-08-06T00:10:50;7.25;;;5.05;;
38053;SDS011;23859;50.672;7.164;2023-08-06T00:13:16;6.85;;;4.57;;
38053;SDS011;23859;50.672;7.164;2023-08-06T00:15:43;7.15;;;4.78;;
38053;SDS011;23859;50.672;7.164;2023-08-06T00:18:09;5.95;;;4.25;;
38053;SDS011;23859;50.672;7.164;2023-08-06T00:20:35;8.48;;;5.03;;
38053;SDS011;23859;50.672;7.164;2023-08-06T00:23:03;6.03;;;4.28;;
38053;SDS011;23859;50.672;7.164;2023-08-06T00:25:29;8.77;;;4.38;;
38053;SDS011;23859;50.672;7.164;2023-08-06T00:27:55;8.27;;;4.20;;
38053;SDS011;23859;50.672;7.164;2023-08-06T00:30:21;5.75;;;4.20;;
38053;SDS011;23859;50.672;7.164;2023-08-06T00:32:47;9.15;;;4.38;;
38053;SDS011;23859;50.672;7.164;2023-08-06T00:35:14;6.20;;;4.38;;
38053;SDS011;23859;50.672;7.164;2023-08-06T00:37:40;8.38;;;4.68;;
38053;SDS011;23859;50.672;7.164;2023-08-06T00:40:06;6.72;;;4.43;;
38053;SDS011;23859;50.672;7.164;2023-08-06T00:42:33;5.75;;;4.15;;
38053;SDS011;23859;50.672;7.164;2023-08-06T00:45:00;8.60;;;4.53;;
38053;SDS011;23859;50.672;7.164;2023-08-06T00:47:26;7.22;;;3.85;;
38053;SDS011;23859;50.672;7.164;2023-08-06T00:49:52;7.75;;;3.85;;
38053;SDS011;23859;50.672;7.164;2023-08-06T00:52:19;5.47;;;3.58;;
38053;SDS011;23859;50.672;7.164;2023-08-06T00:54:45;6.47;;;3.65;;
38053;SDS011;23859;50.672;7.164;2023-08-06T00:57:12;6.30;;;3.10;;
38053;SDS011;23859;50.672;7.164;2023-08-06T00:59:38;5.70;;;3.70;;
38053;SDS011;23859;50.672;7.164;2023-08-06T01:02:04;7.85;;;3.67;;
38053;SDS011;23859;50.672;7.164;2023-08-06T01:04:31;8.73;;;4.32;;
38053;SDS011;23859;50.672;7.164;2023-08-06T01:07:02;9.30;;;3.63;;
38053;SDS011;23859;50.672;7.164;2023-08-06T01:09:52;5.70;;;3.72;;
38053;SDS011;23859;50.672;7.164;2023-08-06T01:12:25;5.93;;;3.80;;
38053;SDS011;23859;50.672;7.164;2023-08-06T01:15:17;6.40;;;3.88;;
38053;SDS011;23859;50.672;7.164;2023-08-06T01:17:47;4.57;;;3.33;;
38053;SDS011;23859;50.672;7.164;2023-08-06T01:20:14;3.58;;;2.67;;
38053;SDS011;23859;50.672;7.164;2023-08-06T01:22:40;5.30;;;3.58;;
38053;SDS011;23859;50.672;7.164;2023-08-06T01:25:06;5.13;;;3.58;;
38053;SDS011;23859;50.672;7.164;2023-08-06T01:27:34;6.20;;;3.58;;
38053;SDS011;23859;50.672;7.164;2023-08-06T01:30:13;4.07;;;3.08;;
38053;SDS011;23859;50.672;7.164;2023-08-06T01:32:44;5.38;;;3.55;;
38053;SDS011;23859;50.672;7.164;2023-08-06T01:35:13;5.45;;;3.45;;
38053;SDS011;23859;50.672;7.164;2023-08-06T01:37:42;5.90;;;3.58;;
38053;SDS011;23859;50.672;7.164;2023-08-06T01:40:12;7.65;;;3.47;;
38053;SDS011;23859;50.672;7.164;2023-08-06T01:42:38;5.53;;;2.97;;
38053;SDS011;23859;50.672;7.164;2023-08-06T01:45:08;6.18;;;3.13;;
38053;SDS011;23859;50.672;7.164;2023-08-06T01:47:35;5.53;;;3.15;;
38053;SDS011;23859;50.672;7.164;2023-08-06T01:50:02;4.95;;;3.03;;
38053;SDS011;23859;50.672;7.164;2023-08-06T01:52:28;5.68;;;3.70;;
38053;SDS011;23859;50.672;7.164;2023-08-06T01:54:54;4.30;;;3.42;;
38053;SDS011;23859;50.672;7.164;2023-08-06T01:57:20;8.30;;;3.72;;
38053;SDS011;23859;50.672;7.164;2023-08-06T01:59:46;6.50;;;3.70;;
38053;SDS011;23859;50.672;7.164;2023-08-06T02:02:13;6.78;;;3.97;;
38053;SDS011;23859;50.672;7.164;2023-08-06T02:04:39;6.65;;;3.38;;
38053;SDS011;23859;50.672;7.164;2023-08-06T02:07:05;8.88;;;3.70;;
38053;SDS011;23859;50.672;7.164;2023-08-06T02:09:31;6.00;;;3.53;;
38053;SDS011;23859;50.672;7.164;2023-08-06T02:11:57;5.90;;;3.13;;
38053;SDS011;23859;50.672;7.164;2023-08-06T02:14:23;9.13;;;3.50;;
38053;SDS011;23859;50.672;7.164;2023-08-06T02:16:49;5.00;;;3.25;;
38053;SDS011;23859;50.672;7.164;2023-08-06T02:19:15;5.55;;;3.55;;
38053;SDS011;23859;50.672;7.164;2023-08-06T02:21:42;8.13;;;3.47;;
38053;SDS011;23859;50.672;7.164;2023-08-06T02:24:08;6.53;;;3.65;;
38053;SDS011;23859;50.672;7.164;2023-08-06T02:26:34;5.22;;;3.78;;
38053;SDS011;23859;50.672;7.164;2023-08-06T02:29:00;9.52;;;3.75;;
38053;SDS011;23859;50.672;7.164;2023-08-06T02:31:26;4.80;;;3.55;;
38053;SDS011;23859;50.672;7.164;2023-08-06T02:33:52;8.07;;;3.78;;
38053;SDS011;23859;50.672;7.164;2023-08-06T02:36:18;4.22;;;3.08;;
38053;SDS011;23859;50.672;7.164;2023-08-06T02:38:45;5.32;;;3.80;;
38053;SDS011;23859;50.672;7.164;2023-08-06T02:41:11;7.57;;;3.92;;
38053;SDS011;23859;50.672;7.164;2023-08-06T02:43:37;5.15;;;3.40;;
38053;SDS011;23859;50.672;7.164;2023-08-06T02:46:03;6.72;;;3.97;;
38053;SDS011;23859;50.672;7.164;2023-08-06T02:48:30;8.55;;;3.60;;
38053;SDS011;23859;50.672;7.164;2023-08-06T02:50:59;8.27;;;3.90;;
38053;SDS011;23859;50.672;7.164;2023-08-06T02:53:25;7.25;;;3.60;;
38053;SDS011;23859;50.672;7.164;2023-08-06T02:55:51;6.53;;;4.07;;
38053;SDS011;23859;50.672;7.164;2023-08-06T02:58:17;9.70;;;3.95;;
38053;SDS011;23859;50.672;7.164;2023-08-06T03:00:58;4.97;;;3.30;;
38053;SDS011;23859;50.672;7.164;2023-08-06T03:03:28;7.43;;;4.10;;
38053;SDS011;23859;50.672;7.164;2023-08-06T03:05:55;7.47;;;4.05;;
38053;SDS011;23859;50.672;7.164;2023-08-06T03:08:22;5.38;;;3.53;;
38053;SDS011;23859;50.672;7.164;2023-08-06T03:10:51;6.20;;;3.95;;
38053;SDS011;23859;50.672;7.164;2023-08-06T03:13:17;4.82;;;3.00;;
38053;SDS011;23859;50.672;7.164;2023-08-06T03:15:51;6.55;;;3.33;;
38053;SDS011;23859;50.672;7.164;2023-08-06T03:18:21;5.40;;;3.47;;
38053;SDS011;23859;50.672;7.164;2023-08-06T03:20:47;8.07;;;3.45;;
38053;SDS011;23859;50.672;7.164;2023-08-06T03:23:14;4.20;;;2.92;;
38053;SDS011;23859;50.672;7.164;2023-08-06T03:25:40;4.30;;;2.60;;
38053;SDS011;23859;50.672;7.164;2023-08-06T03:28:06;5.50;;;2.90;;
38053;SDS011;23859;50.672;7.164;2023-08-06T03:30:32;6.10;;;3.03;;
38053;SDS011;23859;50.672;7.164;2023-08-06T03:33:01;6.28;;;2.90;;
38053;SDS011;23859;50.672;7.164;2023-08-06T03:35:29;4.18;;;2.50;;
38053;SDS011;23859;50.672;7.164;2023-08-06T03:37:55;5.28;;;2.88;;
38053;SDS011;23859;50.672;7.164;2023-08-06T03:40:21;5.75;;;2.80;;
38053;SDS011;23859;50.672;7.164;2023-08-06T03:42:47;8.18;;;3.15;;
38053;SDS011;23859;50.672;7.164;2023-08-06T03:45:13;14.10;;;3.55;;
38053;SDS011;23859;50.672;7.164;2023-08-06T03:47:39;6.47;;;3.10;;
38053;SDS011;23859;50.672;7.164;2023-08-06T03:50:05;6.20;;;4.25;;
38053;SDS011;23859;50.672;7.164;2023-08-06T03:52:32;4.85;;;2.83;;
38053;SDS011;23859;50.672;7.164;2023-08-06T03:54:58;5.80;;;3.00;;
38053;SDS011;23859;50.672;7.164;2023-08-06T03:57:24;6.30;;;3.03;;
38053;SDS011;23859;50.672;7.164;2023-08-06T03:59:50;5.70;;;2.83;;
38053;SDS011;23859;50.672;7.164;2023-08-06T04:02:16;4.40;;;2.45;;
38053;SDS011;23859;50.672;7.164;2023-08-06T04:04:42;7.35;;;3.35;;
38053;SDS011;23859;50.672;7.164;2023-08-06T04:07:08;7.28;;;3.85;;
38053;SDS011;23859;50.672;7.164;2023-08-06T04:09:34;7.57;;;2.80;;
38053;SDS011;23859;50.672;7.164;2023-08-06T04:12:20;5.60;;;2.80;;
38053;SDS011;23859;50.672;7.164;2023-08-06T04:14:46;4.10;;;2.70;;
38053;SDS011;23859;50.672;7.164;2023-08-06T04:17:12;7.60;;;3.45;;
38053;SDS011;23859;50.672;7.164;2023-08-06T04:19:38;6.47;;;2.70;;
38053;SDS011;23859;50.672;7.164;2023-08-06T04:22:04;3.97;;;1.92;;
38053;SDS011;23859;50.672;7.164;2023-08-06T04:24:30;5.00;;;2.72;;
38053;SDS011;23859;50.672;7.164;2023-08-06T04:26:56;10.27;;;2.90;;
38053;SDS011;23859;50.672;7.164;2023-08-06T04:29:22;8.55;;;3.08;;
38053;SDS011;23859;50.672;7.164;2023-08-06T04:31:48;8.05;;;2.85;;
38053;SDS011;23859;50.672;7.164;2023-08-06T04:34:14;9.32;;;3.03;;
38053;SDS011;23859;50.672;7.164;2023-08-06T04:36:40;4.82;;;2.90;;
38053;SDS011;23859;50.672;7.164;2023-08-06T04:39:06;6.95;;;2.60;;
38053;SDS011;23859;50.672;7.164;2023-08-06T04:41:32;5.75;;;3.08;;
38053;SDS011;23859;50.672;7.164;2023-08-06T04:43:58;5.32;;;3.20;;
38053;SDS011;23859;50.672;7.164;2023-08-06T04:46:24;5.38;;;2.85;;
38053;SDS011;23859;50.672;7.164;2023-08-06T04:48:50;8.30;;;4.93;;
38053;SDS011;23859;50.672;7.164;2023-08-06T04:51:16;5.25;;;3.42;;
38053;SDS011;23859;50.672;7.164;2023-08-06T04:53:42;5.68;;;3.38;;
38053;SDS011;23859;50.672;7.164;2023-08-06T04:56:08;8.55;;;3.65;;
38053;SDS011;23859;50.672;7.164;2023-08-06T04:58:34;8.10;;;3.58;;
38053;SDS011;23859;50.672;7.164;2023-08-06T05:01:00;11.52;;;3.97;;
38053;SDS011;23859;50.672;7.164;2023-08-06T05:03:27;12.10;;;3.80;;
38053;SDS011;23859;50.672;7.164;2023-08-06T05:05:53;8.80;;;3.22;;
38053;SDS011;23859;50.672;7.164;2023-08-06T05:08:19;6.13;;;3.03;;
38053;SDS011;23859;50.672;7.164;2023-08-06T05:10:45;4.40;;;2.72;;
38053;SDS011;23859;50.672;7.164;2023-08-06T05:13:11;5.68;;;2.50;;
38053;SDS011;23859;50.672;7.164;2023-08-06T05:15:38;6.35;;;2.80;;
38053;SDS011;23859;50.672;7.164;2023-08-06T05:18:07;4.38;;;2.17;;
38053;SDS011;23859;50.672;7.164;2023-08-06T05:20:36;9.48;;;2.97;;
38053;SDS011;23859;50.672;7.164;2023-08-06T05:23:03;3.53;;;2.50;;
38053;SDS011;23859;50.672;7.164;2023-08-06T05:25:29;8.38;;;2.90;;
38053;SDS011;23859;50.672;7.164;2023-08-06T05:27:55;6.63;;;3.47;;
38053;SDS011;23859;50.672;7.164;2023-08-06T05:30:21;4.20;;;2.80;;
38053;SDS011;23859;50.672;7.164;2023-08-06T05:32:50;6.15;;;3.00;;
38053;SDS011;23859;50.672;7.164;2023-08-06T05:35:17;7.38;;;3.33;;
38053;SDS011;23859;50.672;7.164;2023-08-06T05:37:43;5.88;;;2.92;;
38053;SDS011;23859;50.672;7.164;2023-08-06T05:40:09;6.10;;;2.40;;
38053;SDS011;23859;50.672;7.164;2023-08-06T05:42:36;3.53;;;1.92;;
38053;SDS011;23859;50.672;7.164;2023-08-06T05:45:02;3.42;;;2.03;;
38053;SDS011;23859;50.672;7.164;2023-08-06T05:47:28;2.72;;;1.85;;
38053;SDS011;23859;50.672;7.164;2023-08-06T05:49:54;3.30;;;2.25;;
38053;SDS011;23859;50.672;7.164;2023-08-06T05:52:20;3.38;;;2.00;;
38053;SDS011;23859;50.672;7.164;2023-08-06T05:54:46;5.95;;;2.75;;
38053;SDS011;23859;50.672;7.164;2023-08-06T05:57:12;2.70;;;1.75;;
38053;SDS011;23859;50.672;7.164;2023-08-06T05:59:39;3.35;;;1.73;;
38053;SDS011;23859;50.672;7.164;2023-08-06T06:02:06;2.20;;;1.95;;
38053;SDS011;23859;50.672;7.164;2023-08-06T06:04:32;4.68;;;1.70;;
38053;SDS011;23859;50.672;7.164;2023-08-06T06:06:58;2.20;;;1.30;;
38053;SDS011;23859;50.672;7.164;2023-08-06T06:09:24;3.17;;;1.42;;
38053;SDS011;23859;50.672;7.164;2023-08-06T06:11:50;5.40;;;1.73;;
38053;SDS011;23859;50.672;7.164;2023-08-06T06:14:17;4.07;;;1.27;;
38053;SDS011;23859;50.672;7.164;2023-08-06T06:16:43;2.65;;;1.08;;
38053;SDS011;23859;50.672;7.164;2023-08-06T06:19:10;2.00;;;0.95;;
38053;SDS011;23859;50.672;7.164;2023-08-06T06:21:37;3.17;;;1.35;;
38053;SDS011;23859;50.672;7.164;2023-08-06T06:24:06;2.88;;;1.30;;
38053;SDS011;23859;50.672;7.164;2023-08-06T06:26:33;2.20;;;1.40;;
38053;SDS011;23859;50.672;7.164;2023-08-06T06:28:59;7.53;;;1.42;;
38053;SDS011;23859;50.672;7.164;2023-08-06T06:31:25;1.73;;;1.15;;
38053;SDS011;23859;50.672;7.164;2023-08-06T06:33:51;2.08;;;1.23;;
38053;SDS011;23859;50.672;7.164;2023-08-06T06:36:19;1.95;;;1.20;;
38053;SDS011;23859;50.672;7.164;2023-08-06T06:38:45;2.00;;;1.50;;
38053;SDS011;23859;50.672;7.164;2023-08-06T06:41:11;2.65;;;1.20;;
38053;SDS011;23859;50.672;7.164;2023-08-06T06:43:37;3.10;;;1.40;;
38053;SDS011;23859;50.672;7.164;2023-08-06T06:46:05;3.42;;;1.70;;
38053;SDS011;23859;50.672;7.164;2023-08-06T06:48:31;2.47;;;1.83;;
38053;SDS011;23859;50.672;7.164;2023-08-06T06:50:58;3.00;;;1.38;;
38053;SDS011;23859;50.672;7.164;2023-08-06T06:53:25;2.75;;;1.50;;
38053;SDS011;23859;50.672;7.164;2023-08-06T06:55:54;3.20;;;2.03;;
38053;SDS011;23859;50.672;7.164;2023-08-06T06:58:26;2.38;;;1.52;;
38053;SDS011;23859;50.672;7.164;2023-08-06T07:00:52;2.35;;;1.75;;
38053;SDS011;23859;50.672;7.164;2023-08-06T07:03:19;2.50;;;1.45;;
38053;SDS011;23859;50.672;7.164;2023-08-06T07:05:45;3.47;;;1.63;;
38053;SDS011;23859;50.672;7.164;2023-08-06T07:08:11;2.38;;;1.50;;
38053;SDS011;23859;50.672;7.164;2023-08-06T07:10:38;2.65;;;1.40;;
38053;SDS011;23859;50.672;7.164;2023-08-06T07:13:05;4.97;;;1.60;;
38053;SDS011;23859;50.672;7.164;2023-08-06T07:15:32;3.38;;;1.63;;
38053;SDS011;23859;50.672;7.164;2023-08-06T07:17:58;1.88;;;1.55;;
38053;SDS011;23859;50.672;7.164;2023-08-06T07:20:24;2.35;;;1.48;;
38053;SDS011;23859;50.672;7.164;2023-08-06T07:22:50;3.22;;;1.60;;
38053;SDS011;23859;50.672;7.164;2023-08-06T07:25:16;3.58;;;1.60;;
38053;SDS011;23859;50.672;7.164;2023-08-06T07:27:42;3.65;;;1.40;;
38053;SDS011;23859;50.672;7.164;2023-08-06T07:30:09;1.95;;;1.10;;
38053;SDS011;23859;50.672;7.164;2023-08-06T07:32:36;2.78;;;1.50;;
38053;SDS011;23859;50.672;7.164;2023-08-06T07:35:02;1.38;;;1.15;;
38053;SDS011;23859;50.672;7.164;2023-08-06T07:37:28;1.85;;;1.40;;
38053;SDS011;23859;50.672;7.164;2023-08-06T07:39:55;1.77;;;1.20;;
38053;SDS011;23859;50.672;7.164;2023-08-06T07:42:21;1.48;;;1.30;;
38053;SDS011;23859;50.672;7.164;2023-08-06T07:44:57;1.55;;;0.95;;
38053;SDS011;23859;50.672;7.164;2023-08-06T07:47:24;2.22;;;1.30;;
38053;SDS011;23859;50.672;7.164;2023-08-06T07:49:50;1.85;;;0.90;;
38053;SDS011;23859;50.672;7.164;2023-08-06T07:52:16;1.80;;;1.00;;
38053;SDS011;23859;50.672;7.164;2023-08-06T07:54:42;2.70;;;1.08;;
38053;SDS011;23859;50.672;7.164;2023-08-06T07:57:08;1.50;;;1.10;;
38053;SDS011;23859;50.672;7.164;2023-08-06T07:59:35;1.25;;;0.88;;
38053;SDS011;23859;50.672;7.164;2023-08-06T08:02:01;1.92;;;1.70;;
38053;SDS011;23859;50.672;7.164;2023-08-06T08:04:27;1.02;;;0.80;;
38053;SDS011;23859;50.672;7.164;2023-08-06T08:06:53;1.45;;;1.15;;
38053;SDS011;23859;50.672;7.164;2023-08-06T08:09:19;1.60;;;1.42;;
38053;SDS011;23859;50.672;7.164;2023-08-06T08:11:45;2.95;;;1.75;;
38053;SDS011;23859;50.672;7.164;2023-08-06T08:14:12;1.67;;;1.10;;
38053;SDS011;23859;50.672;7.164;2023-08-06T08:16:38;1.80;;;1.52;;
38053;SDS011;23859;50.672;7.164;2023-08-06T08:19:04;10.35;;;1.60;;
38053;SDS011;23859;50.672;7.164;2023-08-06T08:21:31;3.65;;;1.23;;
38053;SDS011;23859;50.672;7.164;2023-08-06T08:23:58;1.60;;;1.35;;
38053;SDS011;23859;50.672;7.164;2023-08-06T08:26:25;1.52;;;1.27;;
38053;SDS011;23859;50.672;7.164;2023-08-06T08:28:52;1.55;;;1.45;;
38053;SDS011;23859;50.672;7.164;2023-08-06T08:31:19;1.42;;;1.30;;
38053;SDS011;23859;50.672;7.164;2023-08-06T08:33:45;2.45;;;1.40;;
38053;SDS011;23859;50.672;7.164;2023-08-06T08:36:11;1.48;;;1.38;;
38053;SDS011;23859;50.672;7.164;2023-08-06T08:38:37;1.85;;;1.40;;
38053;SDS011;23859;50.672;7.164;2023-08-06T08:41:03;1.40;;;1.30;;
38053;SDS011;23859;50.672;7.164;2023-08-06T08:43:29;1.73;;;1.38;;
38053;SDS011;23859;50.672;7.164;2023-08-06T08:45:56;1.50;;;1.40;;
38053;SDS011;23859;50.672;7.164;2023-08-06T08:48:24;3.53;;;1.40;;
38053;SDS011;23859;50.672;7.164;2023-08-06T08:50:51;2.10;;;1.38;;
38053;SDS011;23859;50.672;7.164;2023-08-06T08:53:19;3.70;;;1.65;;
38053;SDS011;23859;50.672;7.164;2023-08-06T08:55:48;2.67;;;1.50;;
38053;SDS011;23859;50.672;7.164;2023-08-06T08:58:15;3.38;;;1.60;;
38053;SDS011;23859;50.672;7.164;2023-08-06T09:00:41;1.88;;;1.20;;
38053;SDS011;23859;50.672;7.164;2023-08-06T09:03:10;2.35;;;1.88;;
38053;SDS011;23859;50.672;7.164;2023-08-06T09:05:36;3.75;;;1.60;;
38053;SDS011;23859;50.672;7.164;2023-08-06T09:08:10;2.35;;;2.08;;
38053;SDS011;23859;50.672;7.164;2023-08-06T09:10:40;4.22;;;1.70;;
38053;SDS011;23859;50.672;7.164;2023-08-06T09:13:07;1.70;;;1.40;;
38053;SDS011;23859;50.672;7.164;2023-08-06T09:15:34;5.32;;;2.10;;
38053;SDS011;23859;50.672;7.164;2023-08-06T09:18:00;3.33;;;2.42;;
38053;SDS011;23859;50.672;7.164;2023-08-06T09:23:06;3.33;;;2.38;;
38053;SDS011;23859;50.672;7.164;2023-08-06T09:25:37;2.45;;;2.03;;
38053;SDS011;23859;50.672;7.164;2023-08-06T09:28:07;1.67;;;1.10;;
38053;SDS011;23859;50.672;7.164;2023-08-06T09:30:34;2.53;;;1.27;;
38053;SDS011;23859;50.672;7.164;2023-08-06T09:33:03;1.13;;;0.88;;
38053;SDS011;23859;50.672;7.164;2023-08-06T09:35:39;1.10;;;0.73;;
38053;SDS011;23859;50.672;7.164;2023-08-06T09:38:07;2.25;;;0.63;;
38053;SDS011;23859;50.672;7.164;2023-08-06T09:40:35;0.57;;;0.52;;
38053;SDS011;23859;50.672;7.164;2023-08-06T09:43:02;1.02;;;0.93;;
38053;SDS011;23859;50.672;7.164;2023-08-06T09:45:33;0.32;;;0.32;;
38053;SDS011;23859;50.672;7.164;2023-08-06T09:48:05;0.28;;;0.28;;
38053;SDS011;23859;50.672;7.164;2023-08-06T09:50:33;0.32;;;0.32;;
38053;SDS011;23859;50.672;7.164;2023-08-06T09:53:06;0.40;;;0.40;;
38053;SDS011;23859;50.672;7.164;2023-08-06T09:55:36;0.30;;;0.25;;
38053;SDS011;23859;50.672;7.164;2023-08-06T09:58:02;2.40;;;0.50;;
38053;SDS011;23859;50.672;7.164;2023-08-06T10:00:30;3.10;;;0.45;;
38053;SDS011;23859;50.672;7.164;2023-08-06T10:02:59;0.30;;;0.30;;
38053;SDS011;23859;50.672;7.164;2023-08-06T10:05:25;0.22;;;0.22;;
38053;SDS011;23859;50.672;7.164;2023-08-06T10:07:52;0.10;;;0.10;;
38053;SDS011;23859;50.672;7.164;2023-08-06T10:10:20;0.20;;;0.10;;
38053;SDS011;23859;50.672;7.164;2023-08-06T10:12:51;0.30;;;0.30;;
38053;SDS011;23859;50.672;7.164;2023-08-06T10:15:22;0.32;;;0.30;;
38053;SDS011;23859;50.672;7.164;2023-08-06T10:17:51;0.43;;;0.43;;
38053;SDS011;23859;50.672;7.164;2023-08-06T10:20:21;1.25;;;0.60;;
38053;SDS011;23859;50.672;7.164;2023-08-06T10:22:59;0.45;;;0.45;;
38053;SDS011;23859;50.672;7.164;2023-08-06T10:25:33;1.30;;;0.90;;
38053;SDS011;23859;50.672;7.164;2023-08-06T10:28:01;1.38;;;0.68;;
38053;SDS011;23859;50.672;7.164;2023-08-06T10:33:06;1.95;;;0.80;;
38053;SDS011;23859;50.672;7.164;2023-08-06T10:40:35;3.08;;;1.30;;
38053;SDS011;23859;50.672;7.164;2023-08-06T10:43:04;4.32;;;2.35;;
38053;SDS011;23859;50.672;7.164;2023-08-06T10:45:35;1.52;;;1.10;;
38053;SDS011;23859;50.672;7.164;2023-08-06T10:48:03;3.80;;;1.10;;
38053;SDS011;23859;50.672;7.164;2023-08-06T10:50:29;2.03;;;1.23;;
38053;SDS011;23859;50.672;7.164;2023-08-06T10:52:56;2.88;;;1.50;;
38053;SDS011;23859;50.672;7.164;2023-08-06T10:55:28;2.78;;;1.33;;
38053;SDS011;23859;50.672;7.164;2023-08-06T10:57:55;2.97;;;1.17;;
38053;SDS011;23859;50.672;7.164;2023-08-06T11:00:22;4.20;;;1.30;;
38053;SDS011;23859;50.672;7.164;2023-08-06T11:02:49;3.05;;;1.60;;
38053;SDS011;23859;50.672;7.164;2023-08-06T11:05:16;2.47;;;1.50;;
38053;SDS011;23859;50.672;7.164;2023-08-06T11:07:43;4.85;;;1.40;;
38053;SDS011;23859;50.672;7.164;2023-08-06T11:10:10;7.38;;;1.67;;
38053;SDS011;23859;50.672;7.164;2023-08-06T11:12:38;3.55;;;1.33;;
38053;SDS011;23859;50.672;7.164;2023-08-06T11:15:04;5.40;;;1.70;;
38053;SDS011;23859;50.672;7.164;2023-08-06T11:17:32;3.83;;;1.55;;
38053;SDS011;23859;50.672;7.164;2023-08-06T11:19:59;4.80;;;1.45;;
38053;SDS011;23859;50.672;7.164;2023-08-06T11:22:29;4.07;;;1.38;;
38053;SDS011;23859;50.672;7.164;2023-08-06T11:24:55;4.43;;;1.63;;
38053;SDS011;23859;50.672;7.164;2023-08-06T11:27:22;3.10;;;1.13;;
38053;SDS011;23859;50.672;7.164;2023-08-06T11:29:50;5.50;;;1.55;;
38053;SDS011;23859;50.672;7.164;2023-08-06T11:32:17;7.20;;;1.40;;
38053;SDS011;23859;50.672;7.164;2023-08-06T11:34:43;4.35;;;1.35;;
38053;SDS011;23859;50.672;7.164;2023-08-06T11:37:09;4.13;;;1.40;;
38053;SDS011;23859;50.672;7.164;2023-08-06T11:39:36;6.88;;;1.27;;
38053;SDS011;23859;50.672;7.164;2023-08-06T11:42:03;6.65;;;1.33;;
38053;SDS011;23859;50.672;7.164;2023-08-06T11:44:31;4.30;;;2.17;;
38053;SDS011;23859;50.672;7.164;2023-08-06T11:46:59;5.40;;;1.20;;
38053;SDS011;23859;50.672;7.164;2023-08-06T11:54:44;5.15;;;1.30;;
38053;SDS011;23859;50.672;7.164;2023-08-06T11:57:11;4.60;;;1.60;;
38053;SDS011;23859;50.672;7.164;2023-08-06T11:59:38;3.53;;;1.42;;
38053;SDS011;23859;50.672;7.164;2023-08-06T12:02:05;3.33;;;1.30;;
38053;SDS011;23859;50.672;7.164;2023-08-06T12:07:25;4.00;;;1.75;;
38053;SDS011;23859;50.672;7.164;2023-08-06T12:09:53;3.50;;;1.38;;
38053;SDS011;23859;50.672;7.164;2023-08-06T12:12:19;1.80;;;1.42;;
38053;SDS011;23859;50.672;7.164;2023-08-06T12:14:45;4.15;;;1.70;;
38053;SDS011;23859;50.672;7.164;2023-08-06T12:17:11;4.93;;;2.13;;
38053;SDS011;23859;50.672;7.164;2023-08-06T12:19:37;2.53;;;1.75;;
38053;SDS011;23859;50.672;7.164;2023-08-06T12:22:03;3.50;;;2.00;;
38053;SDS011;23859;50.672;7.164;2023-08-06T12:24:29;4.57;;;1.67;;
38053;SDS011;23859;50.672;7.164;2023-08-06T12:26:59;4.32;;;2.35;;
38053;SDS011;23859;50.672;7.164;2023-08-06T12:29:27;3.53;;;1.60;;
38053;SDS011;23859;50.672;7.164;2023-08-06T12:31:53;2.72;;;1.50;;
38053;SDS011;23859;50.672;7.164;2023-08-06T12:34:19;7.50;;;2.30;;
38053;SDS011;23859;50.672;7.164;2023-08-06T12:36:45;4.90;;;1.85;;
38053;SDS011;23859;50.672;7.164;2023-08-06T12:39:11;9.35;;;1.92;;
38053;SDS011;23859;50.672;7.164;2023-08-06T12:41:38;3.22;;;1.77;;
38053;SDS011;23859;50.672;7.164;2023-08-06T12:44:04;15.35;;;2.00;;
38053;SDS011;23859;50.672;7.164;2023-08-06T12:46:30;4.25;;;1.70;;
38053;SDS011;23859;50.672;7.164;2023-08-06T12:48:56;2.10;;;1.55;;
38053;SDS011;23859;50.672;7.164;2023-08-06T12:51:23;2.50;;;1.40;;
38053;SDS011;23859;50.672;7.164;2023-08-06T12:53:50;2.75;;;1.60;;
38053;SDS011;23859;50.672;7.164;2023-08-06T12:56:16;4.95;;;1.67;;
38053;SDS011;23859;50.672;7.164;2023-08-06T12:58:42;1.52;;;1.30;;
38053;SDS011;23859;50.672;7.164;2023-08-06T13:01:08;5.97;;;1.80;;
38053;SDS011;23859;50.672;7.164;2023-08-06T13:03:34;3.47;;;1.60;;
38053;SDS011;23859;50.672;7.164;2023-08-06T13:06:00;2.80;;;1.50;;
38053;SDS011;23859;50.672;7.164;2023-08-06T13:08:26;2.70;;;1.50;;
38053;SDS011;23859;50.672;7.164;2023-08-06T13:10:52;2.63;;;1.45;;
38053;SDS011;23859;50.672;7.164;2023-08-06T13:13:18;4.63;;;1.75;;
38053;SDS011;23859;50.672;7.164;2023-08-06T13:15:44;6.53;;;1.45;;
38053;SDS011;23859;50.672;7.164;2023-08-06T13:18:10;2.55;;;1.83;;
38053;SDS011;23859;50.672;7.164;2023-08-06T13:20:37;3.72;;;1.42;;
38053;SDS011;23859;50.672;7.164;2023-08-06T13:23:06;3.38;;;1.90;;
38053;SDS011;23859;50.672;7.164;2023-08-06T13:25:33;4.70;;;1.52;;
38053;SDS011;23859;50.672;7.164;2023-08-06T13:28:02;4.88;;;1.40;;
38053;SDS011;23859;50.672;7.164;2023-08-06T13:30:28;2.33;;;1.17;;
38053;SDS011;23859;50.672;7.164;2023-08-06T13:32:54;0.88;;;0.88;;
38053;SDS011;23859;50.672;7.164;2023-08-06T13:35:21;2.10;;;1.20;;
38053;SDS011;23859;50.672;7.164;2023-08-06T13:37:48;1.30;;;1.20;;
38053;SDS011;23859;50.672;7.164;2023-08-06T13:40:14;1.20;;;1.10;;
38053;SDS011;23859;50.672;7.164;2023-08-06T13:42:40;2.03;;;1.20;;
38053;SDS011;23859;50.672;7.164;2023-08-06T13:45:06;1.80;;;1.50;;
38053;SDS011;23859;50.672;7.164;2023-08-06T13:47:33;2.22;;;1.23;;
38053;SDS011;23859;50.672;7.164;2023-08-06T13:49:59;4.55;;;1.75;;
38053;SDS011;23859;50.672;7.164;2023-08-06T13:52:25;5.55;;;1.90;;
38053;SDS011;23859;50.672;7.164;2023-08-06T13:54:52;6.30;;;2.10;;
38053;SDS011;23859;50.672;7.164;2023-08-06T13:57:18;6.75;;;2.42;;
38053;SDS011;23859;50.672;7.164;2023-08-06T13:59:44;4.85;;;1.90;;
38053;SDS011;23859;50.672;7.164;2023-08-06T14:02:10;2.75;;;1.60;;
38053;SDS011;23859;50.672;7.164;2023-08-06T14:04:36;2.13;;;1.92;;
38053;SDS011;23859;50.672;7.164;2023-08-06T14:07:03;3.10;;;1.80;;
38053;SDS011;23859;50.672;7.164;2023-08-06T14:09:29;6.50;;;2.20;;
38053;SDS011;23859;50.672;7.164;2023-08-06T14:11:55;2.38;;;2.03;;
38053;SDS011;23859;50.672;7.164;2023-08-06T14:14:21;10.52;;;2.65;;
38053;SDS011;23859;50.672;7.164;2023-08-06T14:16:52;2.08;;;1.88;;
38053;SDS011;23859;50.672;7.164;2023-08-06T14:19:19;1.92;;;1.55;;
38053;SDS011;23859;50.672;7.164;2023-08-06T14:21:45;5.18;;;1.83;;
38053;SDS011;23859;50.672;7.164;2023-08-06T14:24:11;2.88;;;1.20;;
38053;SDS011;23859;50.672;7.164;2023-08-06T14:26:38;4.32;;;2.05;;
38053;SDS011;23859;50.672;7.164;2023-08-06T14:29:04;2.10;;;1.20;;
38053;SDS011;23859;50.672;7.164;2023-08-06T14:31:30;6.72;;;1.45;;
38053;SDS011;23859;50.672;7.164;2023-08-06T14:33:56;3.65;;;1.38;;
38053;SDS011;23859;50.672;7.164;2023-08-06T14:36:22;4.82;;;1.38;;
38053;SDS011;23859;50.672;7.164;2023-08-06T14:38:48;1.90;;;1.40;;
38053;SDS011;23859;50.672;7.164;2023-08-06T14:41:14;4.82;;;1.40;;
38053;SDS011;23859;50.672;7.164;2023-08-06T14:43:40;2.45;;;0.98;;
38053;SDS011;23859;50.672;7.164;2023-08-06T14:46:06;2.25;;;1.17;;
38053;SDS011;23859;50.672;7.164;2023-08-06T14:48:32;1.92;;;1.10;;
38053;SDS011;23859;50.672;7.164;2023-08-06T14:50:58;4.43;;;1.17;;
38053;SDS011;23859;50.672;7.164;2023-08-06T14:53:25;1.30;;;0.75;;
38053;SDS011;23859;50.672;7.164;2023-08-06T14:55:51;9.73;;;1.40;;
38053;SDS011;23859;50.672;7.164;2023-08-06T14:58:17;1.85;;;0.90;;
38053;SDS011;23859;50.672;7.164;2023-08-06T15:00:44;1.60;;;0.80;;
38053;SDS011;23859;50.672;7.164;2023-08-06T15:03:11;2.83;;;0.82;;
38053;SDS011;23859;50.672;7.164;2023-08-06T15:05:37;2.42;;;0.88;;